createdAt,value
2023-04-30T00:01:26.204Z,8.57
2023-04-30T00:03:54.746Z,8.37
2023-04-30T00:06:23.231Z,7.03
2023-04-30T00:08:51.612Z,8.30
2023-04-30T00:11:21.537Z,7.73
2023-04-30T00:13:49.897Z,9.53
2023-04-30T00:16:18.268Z,11.07
2023-04-30T00:18:46.708Z,7.10
2023-04-30T00:21:15.126Z,6.07
2023-04-30T00:23:43.499Z,11.20
2023-04-30T00:26:11.845Z,6.10
2023-04-30T00:28:41.547Z,13.10
2023-04-30T00:31:09.884Z,9.03
2023-04-30T00:33:38.200Z,4.77
2023-04-30T00:36:06.991Z,8.30
2023-04-30T00:38:35.342Z,6.87
2023-04-30T00:41:03.929Z,5.37
2023-04-30T00:43:32.323Z,7.93
2023-04-30T00:46:03.929Z,7.10
2023-04-30T00:48:32.454Z,8.50
2023-04-30T00:51:00.878Z,14.07
2023-04-30T00:53:29.304Z,13.73
2023-04-30T00:55:57.850Z,8.63
2023-04-30T00:58:26.164Z,8.93
2023-04-30T01:00:54.987Z,8.77
2023-04-30T01:03:24.846Z,7.07
2023-04-30T01:05:53.851Z,14.03
2023-04-30T01:08:22.668Z,7.77
2023-04-30T01:10:54.244Z,7.80
2023-04-30T01:13:28.467Z,10.97
2023-04-30T01:16:01.362Z,13.27
2023-04-30T01:18:33.159Z,4.97
2023-04-30T01:21:03.291Z,6.00
2023-04-30T01:23:38.374Z,3.83
2023-04-30T01:26:12.828Z,10.10
2023-04-30T01:28:44.751Z,5.77
2023-04-30T01:31:13.792Z,8.23
2023-04-30T01:33:42.172Z,10.93
2023-04-30T01:36:19.598Z,8.90
2023-04-30T01:38:57.911Z,8.90
2023-04-30T01:41:30.328Z,7.30
2023-04-30T01:44:04.721Z,6.90
2023-04-30T01:46:33.411Z,9.77
2023-04-30T01:49:06.032Z,11.70
2023-04-30T01:51:37.087Z,9.10
2023-04-30T01:54:23.370Z,10.03
2023-04-30T01:56:55.728Z,9.40
2023-04-30T01:59:25.518Z,4.70
2023-04-30T02:01:53.936Z,7.57
2023-04-30T02:04:22.658Z,11.90
2023-04-30T02:06:50.986Z,6.33
2023-04-30T02:09:19.389Z,12.10
2023-04-30T02:11:47.736Z,7.10
2023-04-30T02:14:16.062Z,11.57
2023-04-30T02:16:45.750Z,10.10
2023-04-30T02:19:14.143Z,8.07
2023-04-30T02:21:42.536Z,17.20
2023-04-30T02:24:10.907Z,8.60
2023-04-30T02:26:39.196Z,6.23
2023-04-30T02:29:07.488Z,9.30
2023-04-30T02:31:35.843Z,9.80
2023-04-30T02:34:05.565Z,10.23
2023-04-30T02:36:36.643Z,8.07
2023-04-30T02:39:05.161Z,10.40
2023-04-30T02:41:33.461Z,7.43
2023-04-30T02:44:01.766Z,10.27
2023-04-30T02:46:30.050Z,9.47
2023-04-30T02:48:58.365Z,9.10
2023-04-30T02:51:28.292Z,6.17
2023-04-30T02:53:56.668Z,11.17
2023-04-30T02:56:25.059Z,7.20
2023-04-30T02:58:55.256Z,9.80
2023-04-30T03:01:25.403Z,11.00
2023-04-30T03:03:53.949Z,11.00
2023-04-30T03:06:24.206Z,7.90
2023-04-30T03:08:57.242Z,8.87
2023-04-30T03:11:25.652Z,11.47
2023-04-30T03:13:55.972Z,7.47
2023-04-30T03:16:24.409Z,12.50
2023-04-30T03:18:54.726Z,9.67
2023-04-30T03:21:24.838Z,13.83
2023-04-30T03:23:54.596Z,11.13
2023-04-30T03:26:24.946Z,9.17
2023-04-30T03:28:55.154Z,14.97
2023-04-30T03:31:23.523Z,10.07
2023-04-30T03:33:52.110Z,7.87
2023-04-30T03:36:20.523Z,8.80
2023-04-30T03:38:48.929Z,18.03
2023-04-30T03:41:18.614Z,9.17
2023-04-30T03:43:46.913Z,11.10
2023-04-30T03:46:17.222Z,11.40
2023-04-30T03:48:47.388Z,8.70
2023-04-30T03:51:15.745Z,21.33
2023-04-30T03:53:46.224Z,11.70
2023-04-30T03:56:16.592Z,12.33
2023-04-30T03:58:46.301Z,11.40
2023-04-30T04:01:14.664Z,7.43
2023-04-30T04:03:43.087Z,16.03
2023-04-30T04:06:11.507Z,11.40
2023-04-30T04:08:43.345Z,14.37
2023-04-30T04:11:15.043Z,9.83
2023-04-30T04:13:43.424Z,12.77
2023-04-30T04:16:13.202Z,16.80
2023-04-30T04:18:41.619Z,12.80
2023-04-30T04:21:09.971Z,11.03
2023-04-30T04:23:38.370Z,12.57
2023-04-30T04:26:08.792Z,7.07
2023-04-30T04:28:39.242Z,13.07
2023-04-30T04:31:09.388Z,17.50
2023-04-30T04:33:41.164Z,15.57
2023-04-30T04:36:09.547Z,12.00
2023-04-30T04:38:37.848Z,12.73
2023-04-30T04:41:06.279Z,8.90
2023-04-30T04:43:34.671Z,10.77
2023-04-30T04:46:03.114Z,10.70
2023-04-30T04:48:31.521Z,21.20
2023-04-30T04:51:01.263Z,17.43
2023-04-30T04:53:29.634Z,9.23
2023-04-30T04:55:57.980Z,12.30
2023-04-30T04:58:26.969Z,14.97
2023-04-30T05:00:55.401Z,8.07
2023-04-30T05:03:23.864Z,13.80
2023-04-30T05:05:52.331Z,10.07
2023-04-30T05:08:22.100Z,14.87
2023-04-30T05:10:50.503Z,9.50
2023-04-30T05:13:19.139Z,13.60
2023-04-30T05:15:47.641Z,10.23
2023-04-30T05:18:16.331Z,12.80
2023-04-30T05:20:44.683Z,13.63
2023-04-30T05:23:13.147Z,12.33
2023-04-30T05:25:42.963Z,12.70
2023-04-30T05:28:11.377Z,13.77
2023-04-30T05:30:39.773Z,19.80
2023-04-30T05:33:08.201Z,14.13
2023-04-30T05:35:36.934Z,13.00
2023-04-30T05:38:05.609Z,9.43
2023-04-30T05:40:33.946Z,12.73
2023-04-30T05:43:03.720Z,14.20
2023-04-30T05:45:32.142Z,12.33
2023-04-30T05:48:02.013Z,12.13
2023-04-30T05:50:30.634Z,11.07
2023-04-30T05:52:59.000Z,12.93
2023-04-30T05:55:27.422Z,8.23
2023-04-30T05:57:55.811Z,14.40
2023-04-30T06:00:25.751Z,13.37
2023-04-30T06:02:54.170Z,15.07
2023-04-30T06:05:22.713Z,13.77
2023-04-30T06:07:51.156Z,21.60
2023-04-30T06:10:19.537Z,11.90
2023-04-30T06:12:47.911Z,18.80
2023-04-30T06:15:16.302Z,7.40
2023-04-30T06:17:46.122Z,17.23
2023-04-30T06:20:17.388Z,19.57
2023-04-30T06:22:45.833Z,17.90
2023-04-30T06:25:14.246Z,12.00
2023-04-30T06:27:42.644Z,13.47
2023-04-30T06:30:11.465Z,12.10
2023-04-30T06:32:39.928Z,14.27
2023-04-30T06:35:10.184Z,14.13
2023-04-30T06:37:38.750Z,12.33
2023-04-30T06:40:07.891Z,13.57
2023-04-30T06:42:36.287Z,14.20
2023-04-30T06:45:06.604Z,13.33
2023-04-30T06:47:36.345Z,8.43
2023-04-30T06:50:05.193Z,15.60
2023-04-30T06:52:34.932Z,11.40
2023-04-30T06:55:03.740Z,15.07
2023-04-30T06:57:32.498Z,12.43
2023-04-30T07:00:02.265Z,10.40
2023-04-30T07:02:30.710Z,13.30
2023-04-30T07:04:59.674Z,14.50
2023-04-30T07:07:28.106Z,9.80
2023-04-30T07:09:58.083Z,11.23
2023-04-30T07:12:26.828Z,11.20
2023-04-30T07:14:55.466Z,15.17
2023-04-30T07:17:27.432Z,12.07
2023-04-30T07:19:56.359Z,11.90
2023-04-30T07:22:24.968Z,11.37
2023-04-30T07:24:53.367Z,11.43
2023-04-30T07:27:23.131Z,10.17
2023-04-30T07:29:51.586Z,11.53
2023-04-30T07:32:20.255Z,13.20
2023-04-30T07:34:48.882Z,10.30
2023-04-30T07:37:17.506Z,13.17
2023-04-30T07:39:45.899Z,15.50
2023-04-30T07:42:14.242Z,9.00
2023-04-30T07:44:43.980Z,6.90
2023-04-30T07:47:12.382Z,10.70
2023-04-30T07:49:40.787Z,12.50
2023-04-30T07:52:11.072Z,10.23
2023-04-30T07:54:40.280Z,10.57
2023-04-30T07:57:08.721Z,10.80
2023-04-30T07:59:37.099Z,7.80
2023-04-30T08:02:06.884Z,10.80
2023-04-30T08:04:35.421Z,8.83
2023-04-30T08:07:04.425Z,12.30
2023-04-30T08:09:32.832Z,18.03
2023-04-30T08:12:02.005Z,8.63
2023-04-30T08:14:30.679Z,7.93
2023-04-30T08:17:00.904Z,9.23
2023-04-30T08:19:31.156Z,8.57
2023-04-30T08:22:01.131Z,6.00
2023-04-30T08:24:29.555Z,7.30
2023-04-30T08:26:58.016Z,4.37
2023-04-30T08:29:26.547Z,8.50
2023-04-30T08:31:54.987Z,5.47
2023-04-30T08:34:24.483Z,11.37
2023-04-30T08:36:54.238Z,6.80
2023-04-30T08:39:22.596Z,7.47
2023-04-30T08:41:56.017Z,10.43
2023-04-30T08:44:24.728Z,6.00
2023-04-30T08:46:55.531Z,6.60
2023-04-30T08:49:24.940Z,5.37
2023-04-30T08:51:54.806Z,7.07
2023-04-30T08:54:24.200Z,8.53
2023-04-30T08:56:52.641Z,5.77
2023-04-30T08:59:21.470Z,5.50
2023-04-30T09:01:52.055Z,6.67
2023-04-30T09:04:22.046Z,6.40
2023-04-30T09:06:50.435Z,6.20
2023-04-30T09:09:20.307Z,3.83
2023-04-30T09:11:48.667Z,6.27
2023-04-30T09:14:25.847Z,5.23
2023-04-30T09:16:56.392Z,4.80
2023-04-30T09:19:25.712Z,8.50
2023-04-30T09:21:54.201Z,6.30
2023-04-30T09:24:38.013Z,8.53
2023-04-30T09:27:17.313Z,4.07
2023-04-30T09:29:46.252Z,3.90
2023-04-30T09:32:14.789Z,4.97
2023-04-30T09:34:47.073Z,4.80
2023-04-30T09:37:16.067Z,4.83
2023-04-30T09:39:53.064Z,4.33
2023-04-30T09:42:22.222Z,4.20
2023-04-30T09:44:50.776Z,4.27
2023-04-30T09:47:19.756Z,3.93
2023-04-30T09:49:51.879Z,5.67
2023-04-30T09:52:20.925Z,3.20
2023-04-30T09:54:49.661Z,2.30
2023-04-30T09:57:22.991Z,4.53
2023-04-30T09:59:54.241Z,5.30
2023-04-30T10:02:23.618Z,5.00
2023-04-30T10:04:56.176Z,3.40
2023-04-30T10:07:29.508Z,3.90
2023-04-30T10:09:59.629Z,7.20
2023-04-30T10:12:35.598Z,3.70
2023-04-30T10:15:07.062Z,5.37
2023-04-30T10:17:41.127Z,5.70
2023-04-30T10:20:11.799Z,4.53
2023-04-30T10:22:41.769Z,4.47
2023-04-30T10:25:13.535Z,5.43
2023-04-30T10:27:43.375Z,2.97
2023-04-30T10:30:14.024Z,3.50
2023-04-30T10:32:46.153Z,4.77
2023-04-30T10:35:16.807Z,3.90
2023-04-30T10:37:49.717Z,4.20
2023-04-30T10:40:18.209Z,6.77
2023-04-30T10:42:51.839Z,8.53
2023-04-30T10:45:20.769Z,4.60
2023-04-30T10:47:49.236Z,3.67
2023-04-30T10:50:17.835Z,7.67
2023-04-30T10:52:47.860Z,4.80
2023-04-30T10:55:19.427Z,3.50
2023-04-30T10:57:48.494Z,5.17
2023-04-30T11:00:23.901Z,4.53
2023-04-30T11:02:57.527Z,3.47
2023-04-30T11:05:37.690Z,3.83
2023-04-30T11:08:07.056Z,4.37
2023-04-30T11:10:36.515Z,5.07
2023-04-30T11:13:10.192Z,3.37
2023-04-30T11:15:43.304Z,3.03
2023-04-30T11:18:14.658Z,2.97
2023-04-30T11:20:43.506Z,3.50
2023-04-30T11:23:22.187Z,2.73
2023-04-30T11:26:01.045Z,3.90
2023-04-30T11:28:31.972Z,3.57
2023-04-30T11:31:02.218Z,2.83
2023-04-30T11:33:31.397Z,2.80
2023-04-30T11:36:02.261Z,3.77
2023-04-30T11:38:31.601Z,4.43
2023-04-30T11:41:00.529Z,3.93
2023-04-30T11:43:29.470Z,4.80
2023-04-30T11:46:05.660Z,7.83
2023-04-30T11:48:34.490Z,3.53
2023-04-30T11:51:05.515Z,5.73
2023-04-30T11:53:33.909Z,2.73
2023-04-30T11:56:07.817Z,2.53
2023-04-30T11:58:39.327Z,7.50
2023-04-30T12:01:09.713Z,5.93
2023-04-30T12:03:47.532Z,5.40
2023-04-30T12:06:23.761Z,6.80
2023-04-30T12:08:54.185Z,5.20
2023-04-30T12:11:25.542Z,3.10
2023-04-30T12:13:54.912Z,3.10
2023-04-30T12:16:26.081Z,3.47
2023-04-30T12:18:55.580Z,4.20
2023-04-30T12:21:24.442Z,4.90
2023-04-30T12:23:53.550Z,6.03
2023-04-30T12:26:22.316Z,3.13
2023-04-30T12:28:51.145Z,3.57
2023-04-30T12:31:20.101Z,4.73
2023-04-30T12:33:57.566Z,5.03
2023-04-30T12:36:32.789Z,2.80
2023-04-30T12:39:05.743Z,3.00
2023-04-30T12:41:37.770Z,3.10
2023-04-30T12:44:15.782Z,3.37
2023-04-30T12:46:46.628Z,3.30
2023-04-30T12:49:26.139Z,3.07
2023-04-30T12:51:58.622Z,3.80
2023-04-30T12:54:27.783Z,3.37
2023-04-30T12:57:04.430Z,5.00
2023-04-30T12:59:33.808Z,4.33
2023-04-30T13:02:09.659Z,4.20
2023-04-30T13:04:54.084Z,4.70
2023-04-30T13:07:43.081Z,2.93
2023-04-30T13:10:12.095Z,8.43
2023-04-30T13:15:52.728Z,3.63
2023-04-30T13:18:21.701Z,3.57
2023-04-30T13:20:51.878Z,4.63
2023-04-30T13:23:20.247Z,2.73
2023-04-30T13:25:48.623Z,4.23
2023-04-30T13:28:17.447Z,7.90
2023-04-30T13:30:45.802Z,2.97
2023-04-30T13:33:14.155Z,4.20
2023-04-30T13:35:42.491Z,3.07
2023-04-30T13:38:12.233Z,4.70
2023-04-30T13:40:41.152Z,3.73
2023-04-30T13:43:09.509Z,4.37
2023-04-30T13:45:37.915Z,5.70
2023-04-30T13:48:06.502Z,4.63
2023-04-30T13:50:34.876Z,3.60
2023-04-30T13:53:03.496Z,3.10
2023-04-30T13:55:33.210Z,3.17
2023-04-30T13:58:01.573Z,3.17
2023-04-30T14:00:29.934Z,8.50
2023-04-30T14:02:58.470Z,3.60
2023-04-30T14:05:26.941Z,4.90
2023-04-30T14:07:55.308Z,3.83
2023-04-30T14:10:43.587Z,2.57
2023-04-30T14:13:12.293Z,2.90
2023-04-30T14:15:40.689Z,4.10
2023-04-30T14:18:09.101Z,4.90
2023-04-30T14:20:37.482Z,3.73
2023-04-30T14:23:05.854Z,4.10
2023-04-30T14:25:34.275Z,2.53
2023-04-30T14:28:03.947Z,2.90
2023-04-30T14:30:32.323Z,2.63
2023-04-30T14:33:00.686Z,2.57
2023-04-30T14:35:29.035Z,2.57
2023-04-30T14:37:57.398Z,2.73
2023-04-30T14:40:25.760Z,2.43
2023-04-30T14:42:54.067Z,3.73
2023-04-30T14:45:23.792Z,2.73
2023-04-30T14:47:52.183Z,2.90
2023-04-30T14:50:20.538Z,3.77
2023-04-30T14:52:48.935Z,2.93
2023-04-30T14:55:17.314Z,3.40
2023-04-30T14:57:45.726Z,3.73
2023-04-30T15:00:14.547Z,2.60
2023-04-30T15:02:44.382Z,2.33
2023-04-30T15:05:12.956Z,3.17
2023-04-30T15:07:41.405Z,3.47
2023-04-30T15:10:10.568Z,2.53
2023-04-30T15:12:39.671Z,2.60
2023-04-30T15:15:09.056Z,3.37
2023-04-30T15:17:37.778Z,3.00
2023-04-30T15:20:08.784Z,3.50
2023-04-30T15:22:37.142Z,4.33
2023-04-30T15:25:06.058Z,2.57
2023-04-30T15:27:34.425Z,3.53
2023-04-30T15:30:02.852Z,3.00
2023-04-30T15:32:31.321Z,3.80
2023-04-30T15:34:59.671Z,3.57
2023-04-30T15:37:29.374Z,4.50
2023-04-30T15:39:57.871Z,2.63
2023-04-30T15:42:26.303Z,2.57
2023-04-30T15:44:55.426Z,4.10
2023-04-30T15:47:24.066Z,3.60
2023-04-30T15:49:52.845Z,4.20
2023-04-30T15:52:21.524Z,3.33
2023-04-30T15:54:51.454Z,3.73
2023-04-30T15:57:20.074Z,3.83
2023-04-30T15:59:48.412Z,3.53
2023-04-30T16:02:16.821Z,4.13
2023-04-30T16:04:45.320Z,11.47
2023-04-30T16:07:13.758Z,4.20
2023-04-30T16:09:45.734Z,3.70
2023-04-30T16:12:16.270Z,5.27
2023-04-30T16:14:44.653Z,2.87
2023-04-30T16:17:13.075Z,3.20
2023-04-30T16:19:42.049Z,3.10
2023-04-30T16:22:10.402Z,4.20
2023-04-30T16:24:38.706Z,4.10
2023-04-30T16:27:07.338Z,3.73
2023-04-30T16:29:37.059Z,4.37
2023-04-30T16:32:05.452Z,3.27
2023-04-30T16:34:33.795Z,3.70
2023-04-30T16:37:02.203Z,4.67
2023-04-30T16:39:30.561Z,3.27
2023-04-30T16:41:58.880Z,2.63
2023-04-30T16:44:27.206Z,8.87
2023-04-30T16:46:59.507Z,3.03
2023-04-30T16:49:27.831Z,4.47
2023-04-30T16:51:56.199Z,4.27
2023-04-30T16:54:24.499Z,3.80
2023-04-30T16:56:52.879Z,3.70
2023-04-30T16:59:21.295Z,5.70
2023-04-30T17:01:49.793Z,3.10
2023-04-30T17:04:19.505Z,3.00
2023-04-30T17:06:48.048Z,2.93
2023-04-30T17:09:16.455Z,3.23
2023-04-30T17:11:44.806Z,4.90
2023-04-30T17:14:13.127Z,5.00
2023-04-30T17:16:41.623Z,3.87
2023-04-30T17:19:09.956Z,5.20
2023-04-30T17:21:39.617Z,4.57
2023-04-30T17:24:08.562Z,4.13
2023-04-30T17:26:36.968Z,7.93
2023-04-30T17:29:06.188Z,2.83
2023-04-30T17:31:34.817Z,2.80
2023-04-30T17:34:03.322Z,4.00
2023-04-30T17:36:31.749Z,5.40
2023-04-30T17:39:05.375Z,5.23
2023-04-30T17:41:33.962Z,2.80
2023-04-30T17:44:02.303Z,3.73
2023-04-30T17:46:30.691Z,4.50
2023-04-30T17:49:01.553Z,4.67
2023-04-30T17:51:31.559Z,4.87
2023-04-30T17:54:01.245Z,3.90
2023-04-30T17:56:30.014Z,5.43
2023-04-30T17:58:58.898Z,3.20
2023-04-30T18:01:27.572Z,3.27
2023-04-30T18:03:56.181Z,4.73
2023-04-30T18:06:24.626Z,3.53
2023-04-30T18:08:53.849Z,2.97
2023-04-30T18:11:23.657Z,3.53
2023-04-30T18:13:52.060Z,3.97
2023-04-30T18:16:20.636Z,5.97
2023-04-30T18:18:49.011Z,3.40
2023-04-30T18:21:17.424Z,3.83
2023-04-30T18:23:45.833Z,4.73
2023-04-30T18:26:14.194Z,4.07
2023-04-30T18:28:43.865Z,6.83
2023-04-30T18:31:12.807Z,4.50
2023-04-30T18:33:41.498Z,4.03
2023-04-30T18:36:10.766Z,4.97
2023-04-30T18:38:39.335Z,5.43
2023-04-30T18:41:08.139Z,8.27
2023-04-30T18:43:37.550Z,7.07
2023-04-30T18:46:07.370Z,10.53
2023-04-30T18:48:36.456Z,8.80
2023-04-30T18:51:04.853Z,7.50
2023-04-30T18:53:33.201Z,11.83
2023-04-30T18:56:01.739Z,7.53
2023-04-30T18:58:30.114Z,4.83
2023-04-30T19:00:58.827Z,5.20
2023-04-30T19:03:30.400Z,4.10
2023-04-30T19:05:59.000Z,3.93
2023-04-30T19:08:27.366Z,12.60
2023-04-30T19:10:56.823Z,4.53
2023-04-30T19:13:25.294Z,5.77
2023-04-30T19:15:54.215Z,7.63
2023-04-30T19:18:24.579Z,3.87
2023-04-30T19:20:59.359Z,9.70
2023-04-30T19:23:30.218Z,6.23
2023-04-30T19:25:58.841Z,3.63
2023-04-30T19:28:27.466Z,7.23
2023-04-30T19:30:56.475Z,4.27
2023-04-30T19:33:25.071Z,5.27
2023-04-30T19:35:54.766Z,5.23
2023-04-30T19:38:24.632Z,7.97
2023-04-30T19:40:53.846Z,5.10
2023-04-30T19:43:22.615Z,10.20
2023-04-30T19:45:52.739Z,4.40
2023-04-30T19:48:21.396Z,4.93
2023-04-30T19:50:50.279Z,4.00
2023-04-30T19:53:19.127Z,11.60
2023-04-30T19:55:49.037Z,6.60
2023-04-30T19:58:17.595Z,5.03
2023-04-30T20:00:46.758Z,8.50
2023-04-30T20:03:16.184Z,5.73
2023-04-30T20:05:44.744Z,3.80
2023-04-30T20:08:13.200Z,6.80
2023-04-30T20:10:42.791Z,4.30
2023-04-30T20:13:12.534Z,7.03
2023-04-30T20:15:40.979Z,5.57
2023-04-30T20:18:09.321Z,5.33
2023-04-30T20:20:37.728Z,5.30
2023-04-30T20:23:14.347Z,7.43
2023-04-30T20:25:45.286Z,4.67
2023-04-30T20:28:15.568Z,6.50
2023-04-30T20:30:44.149Z,4.40
2023-04-30T20:33:12.976Z,7.53
2023-04-30T20:35:41.804Z,2.97
2023-04-30T20:38:10.762Z,7.10
2023-04-30T20:40:40.521Z,4.27
2023-04-30T20:43:10.337Z,4.03
2023-04-30T20:45:40.708Z,5.40
2023-04-30T20:48:09.875Z,3.60
2023-04-30T20:50:39.236Z,4.97
2023-04-30T20:53:10.267Z,6.93
2023-04-30T20:55:39.410Z,5.17
2023-04-30T20:58:08.878Z,5.70
2023-04-30T21:00:37.374Z,6.50
2023-04-30T21:03:07.267Z,5.47
2023-04-30T21:05:35.785Z,4.43
2023-04-30T21:08:04.124Z,5.20
2023-04-30T21:10:36.103Z,7.47
2023-04-30T21:13:05.505Z,7.50
2023-04-30T21:15:34.375Z,7.10
2023-04-30T21:18:02.810Z,11.03
2023-04-30T21:20:32.646Z,13.73
2023-04-30T21:23:00.990Z,5.23
2023-04-30T21:25:29.324Z,8.70
2023-04-30T21:27:57.699Z,6.50
2023-04-30T21:30:26.584Z,6.13
2023-04-30T21:32:58.435Z,6.83
2023-04-30T21:35:27.733Z,4.63
2023-04-30T21:37:57.719Z,6.33
2023-04-30T21:40:26.427Z,5.73
2023-04-30T21:42:54.808Z,7.27
2023-04-30T21:45:23.221Z,5.77
2023-04-30T21:47:51.865Z,12.17
2023-04-30T21:50:20.259Z,4.90
2023-04-30T21:52:48.728Z,4.20
2023-04-30T21:55:18.530Z,5.30
2023-04-30T21:57:47.381Z,4.90
2023-04-30T22:00:17.127Z,6.90
2023-04-30T22:02:45.537Z,7.43
2023-04-30T22:05:13.993Z,3.77
2023-04-30T22:07:42.396Z,5.73
2023-04-30T22:10:12.058Z,7.80
2023-04-30T22:12:44.647Z,8.23
2023-04-30T22:15:14.916Z,8.83
2023-04-30T22:17:43.365Z,5.33
2023-04-30T22:20:12.225Z,5.90
2023-04-30T22:22:40.583Z,8.83
2023-04-30T22:25:09.967Z,6.00
2023-04-30T22:27:38.446Z,15.03
2023-04-30T22:30:11.837Z,5.43
2023-04-30T22:32:40.171Z,6.00
2023-04-30T22:35:09.003Z,5.43
2023-04-30T22:37:38.682Z,4.70
2023-04-30T22:40:07.741Z,8.97
2023-04-30T22:42:36.122Z,9.20
2023-04-30T22:45:04.476Z,5.50
2023-04-30T22:47:35.167Z,7.20
2023-04-30T22:50:04.687Z,8.13
2023-04-30T22:52:33.151Z,6.03
2023-04-30T22:55:01.705Z,5.97
2023-04-30T22:57:30.026Z,7.03
2023-04-30T22:59:58.678Z,9.00
2023-04-30T23:02:27.760Z,6.00
2023-04-30T23:04:57.604Z,6.07
2023-04-30T23:07:26.072Z,7.70
2023-04-30T23:09:54.737Z,6.40
2023-04-30T23:12:23.541Z,4.67
2023-04-30T23:14:52.048Z,5.13
2023-04-30T23:17:20.597Z,6.93
2023-04-30T23:19:49.031Z,4.70
2023-04-30T23:22:18.762Z,4.83
2023-04-30T23:24:47.344Z,12.10
2023-04-30T23:27:16.214Z,7.07
2023-04-30T23:29:44.550Z,6.60
2023-04-30T23:32:13.011Z,4.90
2023-04-30T23:34:41.468Z,5.43
2023-04-30T23:37:10.248Z,8.93
2023-04-30T23:39:39.907Z,4.73
2023-04-30T23:42:08.536Z,7.60
2023-04-30T23:44:37.028Z,5.63
2023-04-30T23:47:05.748Z,4.33
2023-04-30T23:49:34.056Z,8.97
2023-04-30T23:52:02.796Z,8.50
2023-04-30T23:54:31.158Z,7.07
2023-04-30T23:57:01.028Z,5.93
2023-04-30T23:59:29.392Z,6.30
